Dades meteomassalio
Diari Summary for Gener 13, 2018 Units:  English    Metric   Both
« Previous Day
Next Day »
Diari Semanal Mensual Anual Personalitzat
  Maxima: Minima: Mijana:
Temperatura: 46.9 °F 28 °F 37.8 °F
Rosada: 41.2 °F 25.7 °F 34.2 °F
Humitat: 92 % 74 % 87 %
Velocitat del vent: 6.9 mph 0 mph 0.6 mph
Racha vent: 6.9 mph - -
Vent:- - South
Pressio: 30.3 in 30.1 in -
Pluja: 0.05 in    
Historical Graphs
 
 
Tabular Data for Gener 13, 2018
Time Temperature Dew Point Pressure Wind Wind Speed Wind Gust Humidity Rainfall Rate (Hourly) solar Conditions
00:00 36 °F 32.2 °F 30.3 in Calm     86 % 0 in 0.0 W/m2 CLR
00:12 35.1 °F 31.5 °F 30.3 in Calm     87 % 0 in 0.0 W/m2 CLR
00:21 34 °F 30.6 °F 30.3 in Calm     87 % 0 in 0.0 W/m2 CLR
00:29 34 °F 30.6 °F 30.3 in Calm     87 % 0 in 0.0 W/m2 CLR
00:36 35.1 °F 31.5 °F 30.3 in Calm     87 % 0 in 0.0 W/m2 CLR
00:46 34 °F 30.6 °F 30.3 in Calm     87 % 0 in 0.0 W/m2 CLR
00:54 34 °F 30.7 °F 30.3 in Calm     88 % 0 in 0.0 W/m2 CLR
01:11 34 °F 30.7 °F 30.3 in Calm     88 % 0 in 0.0 W/m2 CLR
01:18 33.1 °F 29.8 °F 30.3 in Calm     88 % 0 in 0.0 W/m2 CLR
01:26 33.1 °F 29.8 °F 30.3 in Calm     88 % 0 in 0.0 W/m2 CLR
01:42 32 °F 29.1 °F 30.3 in Calm     89 % 0 in 0.0 W/m2 CLR
01:54 32 °F 29.1 °F 30.3 in Calm     89 % 0 in 0.0 W/m2 CLR
02:03 32 °F 29.5 °F 30.3 in Calm     90 % 0 in 0.0 W/m2 CLR
02:12 32 °F 29.5 °F 30.3 in Calm     90 % 0 in 0.0 W/m2 CLR
02:21 32 °F 29.5 °F 30.3 in Calm     90 % 0 in 0.0 W/m2 CLR
02:26 32 °F 29.5 °F 30.3 in Calm     90 % 0 in 0.0 W/m2 CLR
02:34 30.9 °F 28.4 °F 30.3 in Calm     90 % 0 in 0.0 W/m2 CLR
02:45 30.9 °F 28.4 °F 30.3 in Calm     90 % 0 in 0.0 W/m2 CLR
03:00 30.9 °F 28.4 °F 30.3 in Calm     90 % 0 in 0.0 W/m2 CLR
03:06 30 °F 27.3 °F 30.3 in Calm     90 % 0 in 0.0 W/m2 CLR
03:22 30.9 °F 28.8 °F 30.3 in Calm     91 % 0 in 0.0 W/m2 CLR
03:28 30.9 °F 28.8 °F 30.3 in Calm     91 % 0 in 0.0 W/m2 CLR
03:48 30.9 °F 28.8 °F 30.3 in Calm     91 % 0 in 0.0 W/m2 CLR
04:04 30.9 °F 28.8 °F 30.3 in Calm     91 % 0 in 0.0 W/m2 CLR
04:16 30 °F 27.7 °F 30.3 in Calm     91 % 0 in 0.0 W/m2 CLR
04:22 30 °F 27.7 °F 30.3 in Calm     91 % 0 in 0.0 W/m2 CLR
04:52 30 °F 27.7 °F 30.3 in Calm     91 % 0 in 0.0 W/m2 CLR
04:58 30 °F 27.7 °F 30.3 in Calm     91 % 0 in 0.0 W/m2 CLR
05:07 30 °F 27.7 °F 30.3 in Calm     91 % 0 in 0.0 W/m2 CLR
05:16 30 °F 27.7 °F 30.3 in Calm     91 % 0 in 0.0 W/m2 CLR
05:34 28.9 °F 26.8 °F 30.2 in Calm     91 % 0 in 0.0 W/m2 CLR
05:39 28.9 °F 26.8 °F 30.2 in Calm     91 % 0 in 0.0 W/m2 CLR
05:52 28 °F 25.7 °F 30.2 in Calm     91 % 0 in 0.0 W/m2 CLR
06:05 28 °F 26.1 °F 30.2 in Calm     92 % 0 in 0.0 W/m2 CLR
06:34 28 °F 26.1 °F 30.2 in Calm     92 % 0 in 0.0 W/m2 CLR
06:44 28 °F 26.1 °F 30.2 in Calm     92 % 0 in 0.0 W/m2 CLR
06:55 28 °F 26.1 °F 30.2 in Calm     92 % 0 in 0.0 W/m2 CLR
07:06 28 °F 26.1 °F 30.2 in Calm     92 % 0 in 0.0 W/m2 CLR
07:14 28 °F 26.1 °F 30.2 in Calm     92 % 0 in 0.0 W/m2 CLR
07:23 28 °F 26.1 °F 30.2 in Calm     92 % 0 in 0.0 W/m2 CLR
07:36 28.9 °F 27 °F 30.2 in Calm     92 % 0 in 0.0 W/m2 CLR
07:56 28.9 °F 27 °F 30.2 in Calm     92 % 0 in 0.0 W/m2 CLR
08:04 28.9 °F 27 °F 30.2 in Calm     92 % 0 in 0.0 W/m2 CLR
08:16 28.9 °F 27 °F 30.2 in Calm     92 % 0 in 7.0 W/m2 OVC
09:03 28.9 °F 27 °F 30.2 in Calm     92 % 0 in 56.0 W/m2 SCT
09:09 30 °F 28 °F 30.2 in Calm     92 % 0 in 74.0 W/m2 FEW
09:25 30 °F 28 °F 30.2 in Calm     92 % 0 in 49.0 W/m2 FEW
09:37 30.9 °F 28.9 °F 30.2 in Calm     92 % 0 in 83.0 W/m2 FEW
10:09 32 °F 29.7 °F 30.2 in Calm     91 % 0.01 in 123.0 W/m2 CLR
10:14 32 °F 29.7 °F 30.2 in Calm     91 % 0.01 in 218.0 W/m2 CLR
10:20 33.1 °F 30.7 °F 30.2 in Calm     91 % 0.01 in 218.0 W/m2 CLR
10:27 34 °F 31.5 °F 30.2 in Calm     90 % 0.01 in 195.0 W/m2 CLR
10:39 35.1 °F 32.2 °F 30.2 in Calm     89 % 0.01 in 330.0 W/m2 CLR
10:50 36 °F 32.5 °F 30.2 in Calm     87 % 0.01 in 183.0 W/m2 CLR
11:07 39 °F 34.9 °F 30.2 in Calm     85 % 0 in 193.0 W/m2 CLR
11:15 39.9 °F 35.6 °F 30.2 in Calm     84 % 0 in 179.0 W/m2 CLR
11:25 39.9 °F 35.2 °F 30.2 in Calm     83 % 0 in 274.0 W/m2 CLR
12:10 45 °F 38.1 °F 30.2 in Calm     77 % 0 in 439.0 W/m2 CLR
12:26 46.9 °F 39 °F 30.2 in East 5 mph 5 mph 74 % 0 in 392.0 W/m2 CLR
12:31 46.9 °F 39.6 °F 30.2 in East 3.5 mph 3.5 mph 75 % 0 in 496.0 W/m2 CLR
12:42 46.9 °F 39.6 °F 30.2 in NE 3.5 mph 3.5 mph 75 % 0 in 355.0 W/m2 CLR
12:56 46.9 °F 39.7 °F 30.2 in ENE 3.5 mph 3.5 mph 76 % 0 in 339.0 W/m2 CLR
13:03 46.9 °F 40.3 °F 30.2 in ENE 5.8 mph 5.8 mph 77 % 0 in 248.0 W/m2 CLR
13:08 46.9 °F 40.3 °F 30.2 in ENE 5.8 mph 5.8 mph 77 % 0 in 230.0 W/m2 CLR
13:27 46 °F 39.9 °F 30.2 in ENE 3.5 mph 3.5 mph 79 % 0 in 134.0 W/m2 CLR
13:34 46 °F 39.9 °F 30.2 in ENE 2.3 mph 2.3 mph 79 % 0 in 132.0 W/m2 CLR
13:39 46 °F 39.9 °F 30.2 in ENE 3.5 mph 3.5 mph 79 % 0 in 128.0 W/m2 CLR
13:51 46 °F 40.3 °F 30.2 in Calm     80 % 0 in 113.0 W/m2 CLR
14:00 46 °F 40.3 °F 30.1 in Calm     80 % 0 in 125.0 W/m2 CLR
14:08 46 °F 40.5 °F 30.1 in Calm     81 % 0 in 188.0 W/m2 CLR
14:18 46 °F 40.5 °F 30.1 in East 1.2 mph 1.2 mph 81 % 0 in 146.0 W/m2 CLR
14:29 45 °F 39.6 °F 30.1 in ENE 3.5 mph 3.5 mph 81 % 0 in 109.0 W/m2 CLR
14:54 46 °F 40.8 °F 30.1 in Calm     82 % 0 in 116.0 W/m2 CLR
15:02 46 °F 40.8 °F 30.1 in Calm     82 % 0 in 111.0 W/m2 CLR
15:10 46 °F 41.2 °F 30.1 in Calm     83 % 0 in 95.0 W/m2 CLR
15:18 46 °F 41.2 °F 30.1 in Calm     83 % 0 in 109.0 W/m2 CLR
15:29 46 °F 40.8 °F 30.1 in North 2.3 mph 2.3 mph 82 % 0 in 95.0 W/m2 CLR
15:35 46 °F 41.2 °F 30.1 in Calm     83 % 0 in 102.0 W/m2 CLR
15:49 46 °F 41.2 °F 30.1 in Calm     83 % 0 in 102.0 W/m2 CLR
15:54 46 °F 41.2 °F 30.1 in Calm     83 % 0 in 107.0 W/m2 CLR
16:19 46 °F 41.2 °F 30.1 in Calm     83 % 0 in 195.0 W/m2 CLR
16:25 46 °F 41.2 °F 30.1 in Calm     83 % 0 in 322.0 W/m2 CLR
16:33 46 °F 40.8 °F 30.1 in Calm     82 % 0 in 102.0 W/m2 CLR
16:39 46 °F 40.8 °F 30.1 in Calm     82 % 0 in 51.0 W/m2 FEW
16:47 45 °F 40.1 °F 30.1 in Calm     83 % 0 in 46.0 W/m2 SCT
16:56 45 °F 40.1 °F 30.1 in Calm     83 % 0 in 67.0 W/m2 FEW
17:03 45 °F 40.1 °F 30.1 in Calm     83 % 0 in 35.0 W/m2 BKN
17:10 44.1 °F 39.2 °F 30.1 in Calm     83 % 0 in 28.0 W/m2 BKN
17:17 44.1 °F 39.2 °F 30.1 in Calm     83 % 0 in 33.0 W/m2 BKN
17:22 43 °F 38.1 °F 30.1 in Calm     83 % 0 in 26.0 W/m2 BKN
17:40 41 °F 36.5 °F 30.1 in Calm     84 % 0 in 9.0 W/m2 BKN
17:46 39.9 °F 36 °F 30.1 in Calm     85 % 0 in 5.0 W/m2 OVC
17:55 39 °F 34.9 °F 30.1 in NNW 3.5 mph 3.5 mph 85 % 0 in 0.0 W/m2 OVC
18:11 39.9 °F 36.3 °F 30.1 in NNW 6.9 mph 6.9 mph 87 % 0 in 0.0 W/m2 CLR
18:32 39 °F 35.8 °F 30.1 in Calm     88 % 0 in 0.0 W/m2 CLR
18:38 39 °F 35.8 °F 30.1 in Calm     88 % 0 in 0.0 W/m2 CLR
18:44 39 °F 35.8 °F 30.1 in Calm     88 % 0 in 0.0 W/m2 CLR
19:02 39 °F 36 °F 30.1 in Calm     89 % 0 in 0.0 W/m2 CLR
19:08 39.9 °F 37 °F 30.1 in Calm     89 % 0 in 0.0 W/m2 CLR
19:14 39.9 °F 37 °F 30.1 in Calm     89 % 0 in 0.0 W/m2 CLR
19:21 39.9 °F 37 °F 30.1 in Calm     89 % 0 in 0.0 W/m2 CLR
19:30 39.9 °F 37 °F 30.1 in Calm     89 % 0 in 0.0 W/m2 CLR
19:38 39.9 °F 37 °F 30.1 in Calm     89 % 0 in 0.0 W/m2 CLR
20:19 39 °F 36 °F 30.1 in West 1.2 mph 1.2 mph 89 % 0 in 0.0 W/m2 CLR
20:24 39.9 °F 37 °F 30.1 in Calm     89 % 0 in 0.0 W/m2 CLR
20:30 39.9 °F 37 °F 30.1 in Calm     89 % 0 in 0.0 W/m2 CLR
20:46 41 °F 37.9 °F 30.1 in Calm     89 % 0 in 0.0 W/m2 CLR
21:04 39.9 °F 37 °F 30.1 in Calm     89 % 0 in 0.0 W/m2 CLR
21:13 39.9 °F 37 °F 30.1 in Calm     89 % 0 in 0.0 W/m2 CLR
21:19 39.9 °F 37 °F 30.1 in Calm     89 % 0 in 0.0 W/m2 CLR
21:35 41 °F 37.8 °F 30.1 in NW 2.3 mph 2.3 mph 88 % 0 in 0.0 W/m2 CLR
21:42 41 °F 37.8 °F 30.1 in NW 3.5 mph 3.5 mph 88 % 0 in 0.0 W/m2 CLR
22:00 41 °F 37.8 °F 30.1 in Calm     88 % 0.01 in 0.0 W/m2 RA
22:06 41 °F 37.9 °F 30.1 in WNW 1.2 mph 1.2 mph 89 % 0.02 in 0.0 W/m2 RA
22:13 41 °F 37.9 °F 30.1 in Calm     89 % 0.02 in 0.0 W/m2 CLR
22:22 41 °F 38.3 °F 30.1 in Calm     90 % 0.02 in 0.0 W/m2 CLR
22:40 41 °F 38.3 °F 30.1 in Calm     90 % 0.03 in 0.0 W/m2 CLR
22:49 39.9 °F 37.6 °F 30.1 in Calm     91 % 0.03 in 0.0 W/m2 CLR
23:02 39.9 °F 37.6 °F 30.1 in Calm     91 % 0.02 in 0.0 W/m2 CLR
23:15 39.9 °F 37.6 °F 30.1 in Calm     91 % 0.01 in 0.0 W/m2 CLR
23:27 41 °F 38.8 °F 30.1 in West 3.5 mph 3.5 mph 92 % 0.01 in 0.0 W/m2 CLR
23:33 41 °F 38.8 °F 30.1 in West 3.5 mph 3.5 mph 92 % 0 in 0.0 W/m2 CLR
23:47 41 °F 38.7 °F 30.1 in Calm     91 % 0.01 in 0.0 W/m2 RA
23:54 41 °F 38.7 °F 30.1 in Calm     91 % 0.01 in 0.0 W/m2 CLR
23:59 41 °F 38.7 °F 30.1 in Calm     91 % 0.01 in 0.0 W/m2 CLR
Lo Temps de Massalio
Compliments of Weather Underground - 768 kb